Time;durP1;ratioP1;P1;durP2;ratioP2;P2;SDS_P1;SDS_P2;PMS_P1;PMS_P2;Temp;Humidity;BMP_temperature;BMP_pressure;BME280_temperature;BME280_humidity;BME280_pressure;Samples;Min_cycle;Max_cycle;Signal;HPM_P1;HPM_P2
2021/11/09 00:01:58;;;;;;;19.30;6.47;;;7.90;99.90;;;;;;5000044;28;20070;-92
2021/11/09 00:04:30;;;;;;;15.25;7.43;;;7.90;99.90;;;;;;5015578;28;20114;-91
2021/11/09 00:07:06;;;;;;;12.73;6.07;;;7.90;99.90;;;;;;5015964;28;20049;-91
2021/11/09 00:09:45;;;;;;;18.70;6.07;;;8.00;99.90;;;;;;5001016;28;20554;-91
2021/11/09 00:12:11;;;;;;;14.50;5.80;;;8.00;99.90;;;;;;5016116;28;20140;-92
2021/11/09 00:14:36;;;;;;;22.05;6.47;;;7.90;99.90;;;;;;5015810;28;20120;-93
2021/11/09 00:17:03;;;;;;;18.63;6.80;;;8.00;99.90;;;;;;5032920;28;20045;-92
2021/11/09 00:19:29;;;;;;;16.27;6.20;;;8.00;99.90;;;;;;4983122;28;20103;-93
2021/11/09 00:21:55;;;;;;;31.35;8.10;;;8.00;99.90;;;;;;4999676;28;20045;-92
2021/11/09 00:24:20;;;;;;;17.88;7.15;;;7.90;99.90;;;;;;4983015;28;20385;-91
2021/11/09 00:26:47;;;;;;;25.52;7.38;;;8.00;99.90;;;;;;5032369;28;20042;-91
2021/11/09 00:29:12;;;;;;;21.63;7.40;;;8.00;99.90;;;;;;5015816;28;20048;-92
2021/11/09 00:31:38;;;;;;;18.58;7.30;;;8.00;99.90;;;;;;4982478;28;20601;-91
2021/11/09 00:34:05;;;;;;;18.10;7.45;;;8.00;99.90;;;;;;5032386;28;20049;-91
2021/11/09 00:36:30;;;;;;;24.45;8.57;;;8.00;99.90;;;;;;5015254;28;20056;-92
2021/11/09 00:38:56;;;;;;;17.42;8.70;;;8.00;99.90;;;;;;4983032;28;20041;-91
2021/11/09 00:41:22;;;;;;;19.75;9.18;;;7.90;99.90;;;;;;4998467;28;20072;-90
2021/11/09 00:43:48;;;;;;;16.63;8.05;;;7.90;99.90;;;;;;4982896;28;20038;-89
2021/11/09 00:46:14;;;;;;;19.02;9.20;;;7.80;99.90;;;;;;4982924;28;20048;-91
2021/11/09 00:48:40;;;;;;;21.95;8.88;;;7.80;99.90;;;;;;4998608;28;20051;-90
2021/11/09 00:51:06;;;;;;;27.65;10.43;;;7.70;99.90;;;;;;5015314;28;20060;-91
2021/11/09 00:53:32;;;;;;;27.73;10.27;;;7.70;99.90;;;;;;5014767;28;20489;-90
2021/11/09 00:55:57;;;;;;;24.98;11.40;;;7.70;99.90;;;;;;5014886;28;20136;-90
2021/11/09 00:58:23;;;;;;;37.55;11.63;;;7.60;99.90;;;;;;4998170;28;20076;-88
2021/11/09 01:00:49;;;;;;;25.92;10.88;;;7.50;99.90;;;;;;4982302;28;20049;-91
2021/11/09 01:03:15;;;;;;;32.53;12.07;;;7.50;99.90;;;;;;4998685;28;20046;-90
2021/11/09 01:05:41;;;;;;;27.02;12.90;;;7.50;99.90;;;;;;5014592;28;20045;-91
2021/11/09 01:08:10;;;;;;;31.85;12.50;;;7.40;99.90;;;;;;4998739;28;20102;-92
2021/11/09 01:10:40;;;;;;;32.35;13.02;;;7.40;99.90;;;;;;4998348;28;20195;-90
2021/11/09 01:13:06;;;;;;;30.35;12.77;;;7.30;99.90;;;;;;5015081;28;20046;-92
2021/11/09 01:15:34;;;;;;;32.50;11.52;;;7.30;99.90;;;;;;4981801;28;20037;-91
2021/11/09 01:18:02;;;;;;;30.70;13.30;;;7.30;99.90;;;;;;4998347;28;20049;-91
2021/11/09 01:20:29;;;;;;;28.55;11.18;;;7.20;99.90;;;;;;4998353;28;20170;-91
2021/11/09 01:22:57;;;;;;;27.10;12.35;;;7.20;99.90;;;;;;4998718;28;20049;-91
2021/11/09 01:25:24;;;;;;;27.13;12.63;;;7.20;99.90;;;;;;5014834;28;20049;-89
2021/11/09 01:27:50;;;;;;;28.35;12.73;;;7.20;99.90;;;;;;5014881;28;20051;-92
2021/11/09 01:30:19;;;;;;;25.13;12.43;;;7.10;99.90;;;;;;4998518;28;20037;-90
2021/11/09 01:32:47;;;;;;;38.67;13.73;;;7.10;99.90;;;;;;5013250;28;20084;-93
2021/11/09 01:35:13;;;;;;;32.30;13.30;;;7.10;99.90;;;;;;4998338;28;20049;-92
2021/11/09 01:37:39;;;;;;;40.50;13.40;;;7.00;99.90;;;;;;5014850;28;20362;-94
2021/11/09 01:40:06;;;;;;;31.83;11.90;;;7.00;99.90;;;;;;4982400;28;20136;-91
2021/11/09 01:42:32;;;;;;;29.75;13.73;;;7.00;99.90;;;;;;4997684;28;20049;-91
2021/11/09 01:44:58;;;;;;;27.30;11.63;;;6.90;99.90;;;;;;4982072;28;20048;-91
2021/11/09 01:47:24;;;;;;;30.08;12.15;;;6.90;99.90;;;;;;5014399;28;20037;-90
2021/11/09 01:49:50;;;;;;;28.98;11.95;;;7.00;99.90;;;;;;4998425;28;20045;-93
2021/11/09 01:52:16;;;;;;;35.92;12.68;;;6.90;99.90;;;;;;4982068;28;20052;-91
2021/11/09 01:54:41;;;;;;;36.60;12.85;;;6.90;99.90;;;;;;4997824;28;20044;-92
2021/11/09 01:57:07;;;;;;;35.33;12.00;;;6.90;99.90;;;;;;4981947;28;20052;-93
2021/11/09 01:59:33;;;;;;;32.53;11.65;;;6.80;99.90;;;;;;4997605;28;20632;-92
2021/11/09 02:01:59;;;;;;;23.60;11.00;;;6.80;99.90;;;;;;5014162;28;20071;-91
2021/11/09 02:04:25;;;;;;;31.10;11.60;;;6.80;99.90;;;;;;5014188;28;20048;-89
2021/11/09 02:06:50;;;;;;;30.25;11.05;;;6.80;99.90;;;;;;5013956;28;20488;-91
2021/11/09 02:09:18;;;;;;;25.73;10.52;;;6.80;99.90;;;;;;4997913;28;20045;-91
2021/11/09 02:11:47;;;;;;;28.15;10.02;;;6.70;99.90;;;;;;5013675;28;20038;-90
2021/11/09 02:14:13;;;;;;;37.88;12.20;;;6.70;99.90;;;;;;5014066;28;20142;-92
2021/11/09 02:16:39;;;;;;;27.40;11.98;;;6.70;99.90;;;;;;4997344;28;20600;-93
2021/11/09 02:19:06;;;;;;;34.80;10.85;;;6.60;99.90;;;;;;4981509;28;20045;-91
2021/11/09 02:21:32;;;;;;;25.20;9.20;;;6.70;99.90;;;;;;4997353;28;20049;-90
2021/11/09 02:23:58;;;;;;;33.05;10.45;;;6.70;99.90;;;;;;5014216;28;20144;-92
2021/11/09 02:26:25;;;;;;;25.23;11.35;;;6.60;99.90;;;;;;4997869;28;20045;-92
2021/11/09 02:28:53;;;;;;;36.10;10.63;;;6.60;99.90;;;;;;4997705;28;20041;-92
2021/11/09 02:31:19;;;;;;;34.95;9.98;;;6.60;99.90;;;;;;4981582;28;20045;-92
2021/11/09 02:33:45;;;;;;;28.45;10.18;;;6.50;99.90;;;;;;4981226;28;20049;-92
2021/11/09 02:36:11;;;;;;;34.72;10.88;;;6.50;99.90;;;;;;4997316;28;20038;-91
2021/11/09 02:38:38;;;;;;;36.78;11.02;;;6.50;99.90;;;;;;5013557;28;20045;-92
2021/11/09 02:41:05;;;;;;;35.75;10.68;;;6.40;99.90;;;;;;4997756;28;20046;-91
2021/11/09 02:43:32;;;;;;;31.75;10.75;;;6.40;99.90;;;;;;5013739;28;20042;-90
2021/11/09 02:46:51;;;;;;;26.25;8.60;;;6.40;99.90;;;;;;5001673;28;20064;-91
2021/11/09 02:49:05;;;;;;;28.92;9.55;;;6.40;99.90;;;;;;5006692;28;20367;-92
2021/11/09 02:51:39;;;;;;;23.58;8.88;;;6.30;99.90;;;;;;5001175;28;20492;-89
2021/11/09 03:07:49;;;;;;;26.42;8.02;;;6.10;99.90;;;;;;5018167;28;20045;-94
2021/11/09 03:10:37;;;;;;;23.98;7.82;;;6.00;99.90;;;;;;5001836;28;20049;-93
2021/11/09 03:13:03;;;;;;;23.70;7.55;;;6.00;99.90;;;;;;5001522;28;20457;-93
2021/11/09 03:15:31;;;;;;;25.77;6.90;;;6.00;99.90;;;;;;5017991;28;20038;-92
2021/11/09 03:18:02;;;;;;;34.03;7.95;;;5.90;99.90;;;;;;4985220;28;20136;-93
2021/11/09 03:20:36;;;;;;;;;;;5.90;99.90;;;;;;5001730;28;20045;-91
2021/11/09 03:47:28;;;;;;;28.08;8.23;;;5.80;99.90;;;;;;5017442;28;20041;-94
2021/11/09 03:49:55;;;;;;;31.35;9.52;;;5.80;99.90;;;;;;5032981;28;20110;-95
2021/11/09 03:52:26;;;;;;;39.10;12.52;;;5.90;99.90;;;;;;5001005;28;20049;-93
2021/11/09 03:55:00;;;;;;;33.05;12.10;;;5.80;99.90;;;;;;4984558;28;20049;-92
2021/11/09 03:57:30;;;;;;;28.10;10.95;;;5.80;99.90;;;;;;5016350;28;20038;-92
2021/11/09 04:00:28;;;;;;;44.97;14.48;;;5.80;99.90;;;;;;4999728;28;20046;-93
2021/11/09 04:05:10;;;;;;;41.28;12.93;;;5.70;99.90;;;;;;5000091;28;20153;-91
2021/11/09 04:10:13;;;;;;;42.75;11.63;;;5.70;99.90;;;;;;5015902;28;20042;-91
2021/11/09 04:52:13;;;;;;;44.60;11.00;;;5.60;99.90;;;;;;5015836;28;20068;-94
2021/11/09 05:02:51;;;;;;;30.33;10.13;;;5.50;99.90;;;;;;5015449;28;20389;-91
2021/11/09 05:10:47;;;;;;;42.03;10.20;;;5.50;99.90;;;;;;5001214;28;20049;-94
2021/11/09 05:13:13;;;;;;;39.95;9.35;;;5.50;99.90;;;;;;5015692;28;20053;-93
2021/11/09 05:15:39;;;;;;;38.83;9.70;;;5.40;99.90;;;;;;5031419;28;20045;-93
2021/11/09 05:18:05;;;;;;;36.15;10.68;;;5.40;99.90;;;;;;4998375;28;20394;-93
2021/11/09 05:20:31;;;;;;;40.83;10.70;;;5.40;99.90;;;;;;4982932;28;20045;-94
2021/11/09 05:22:58;;;;;;;31.70;9.98;;;5.40;99.90;;;;;;4998631;28;20373;-94
2021/11/09 05:25:25;;;;;;;35.10;9.73;;;5.40;99.90;;;;;;5015422;28;20049;-91
2021/11/09 05:27:51;;;;;;;44.55;9.70;;;5.40;99.90;;;;;;4998415;28;20048;-94
2021/11/09 05:30:18;;;;;;;39.88;9.65;;;5.30;99.90;;;;;;4999007;28;20124;-91
2021/11/09 05:32:44;;;;;;;32.47;9.82;;;5.30;99.90;;;;;;5014162;28;20489;-92
2021/11/09 05:35:11;;;;;;;44.00;10.60;;;5.40;99.90;;;;;;5015055;28;20080;-93
2021/11/09 05:37:44;;;;;;;46.42;10.98;;;5.30;99.90;;;;;;4998905;28;20056;-93
2021/11/09 05:40:10;;;;;;;32.03;9.40;;;5.40;99.90;;;;;;4998783;28;20084;-94
2021/11/09 05:42:36;;;;;;;25.83;9.25;;;5.30;99.90;;;;;;4998911;28;20045;-93
2021/11/09 05:45:06;;;;;;;40.85;10.80;;;5.30;99.90;;;;;;4982359;28;20033;-93
2021/11/09 05:47:32;;;;;;;40.28;9.63;;;5.30;99.90;;;;;;4998695;28;20041;-92
2021/11/09 05:49:58;;;;;;;37.70;12.05;;;5.30;99.90;;;;;;4998049;28;20044;-94
2021/11/09 05:52:24;;;;;;;38.75;9.68;;;5.30;99.90;;;;;;4998550;28;20045;-92
2021/11/09 05:54:50;;;;;;;43.78;10.70;;;5.30;99.90;;;;;;4997990;28;20124;-93
2021/11/09 05:57:16;;;;;;;35.85;9.80;;;5.30;99.90;;;;;;4982269;28;20041;-93
2021/11/09 05:59:42;;;;;;;39.95;10.18;;;5.30;99.90;;;;;;4982043;28;20041;-93
2021/11/09 06:02:08;;;;;;;40.75;9.57;;;5.30;99.90;;;;;;4998065;28;20049;-94
2021/11/09 06:04:33;;;;;;;41.20;10.10;;;5.30;99.90;;;;;;4998387;28;20044;-94
2021/11/09 06:06:59;;;;;;;45.00;10.95;;;5.30;99.90;;;;;;4981843;28;20076;-94
2021/11/09 06:09:25;;;;;;;37.15;10.18;;;5.20;99.90;;;;;;4981886;28;20048;-93
2021/11/09 06:11:51;;;;;;;49.17;10.73;;;5.20;99.90;;;;;;4997873;28;20483;-94
2021/11/09 06:14:16;;;;;;;43.75;10.10;;;5.20;99.90;;;;;;4981734;28;20041;-91
2021/11/09 06:16:42;;;;;;;54.10;12.25;;;5.20;99.90;;;;;;4997907;28;20099;-92
2021/11/09 06:19:08;;;;;;;47.58;11.10;;;5.20;99.90;;;;;;5016450;28;20045;-93
2021/11/09 06:21:34;;;;;;;52.85;10.77;;;5.20;99.90;;;;;;5020805;28;20044;-92
2021/11/09 06:24:00;;;;;;;51.67;12.05;;;5.10;99.90;;;;;;5004307;28;20033;-91
2021/11/09 06:26:26;;;;;;;42.85;11.18;;;5.10;99.90;;;;;;5020525;28;20536;-93
2021/11/09 06:28:57;;;;;;;50.25;11.43;;;5.10;99.90;;;;;;5020068;28;20053;-90
2021/11/09 06:31:23;;;;;;;44.58;10.55;;;5.10;99.90;;;;;;5020580;28;20045;-91
2021/11/09 06:33:49;;;;;;;47.67;12.07;;;5.10;99.90;;;;;;5004080;28;20045;-90
2021/11/09 06:36:15;;;;;;;46.50;10.75;;;5.10;99.90;;;;;;4987951;28;20041;-92
2021/11/09 06:38:41;;;;;;;44.78;11.35;;;5.10;99.90;;;;;;5020990;28;20376;-94
2021/11/09 06:41:07;;;;;;;38.85;11.18;;;5.10;99.90;;;;;;5003949;28;20041;-91
2021/11/09 06:43:32;;;;;;;39.78;10.55;;;5.00;99.90;;;;;;5004234;28;20052;-92
2021/11/09 06:45:58;;;;;;;45.72;11.77;;;5.10;99.90;;;;;;5020410;28;20536;-92
2021/11/09 06:48:28;;;;;;;60.28;11.75;;;5.00;99.90;;;;;;5004230;28;20384;-92
2021/11/09 06:50:54;;;;;;;50.28;13.10;;;5.00;99.90;;;;;;5004114;28;20453;-91
2021/11/09 06:53:21;;;;;;;54.25;12.73;;;5.10;99.90;;;;;;5004255;28;20084;-91
2021/11/09 06:55:46;;;;;;;47.17;11.80;;;5.10;99.90;;;;;;5020037;28;20052;-92
2021/11/09 06:58:13;;;;;;;41.83;13.73;;;5.10;99.90;;;;;;5003659;28;20136;-92
2021/11/09 07:00:39;;;;;;;48.30;12.80;;;5.00;99.90;;;;;;5004279;28;20045;-94
2021/11/09 07:03:05;;;;;;;41.28;12.05;;;5.00;99.90;;;;;;5003774;28;20103;-90
2021/11/09 07:05:31;;;;;;;45.97;13.32;;;5.00;99.90;;;;;;5003851;28;20543;-94
2021/11/09 07:07:57;;;;;;;44.80;13.32;;;5.10;99.90;;;;;;5003775;28;20052;-91
2021/11/09 07:10:23;;;;;;;60.50;13.30;;;5.00;99.90;;;;;;5020286;28;20075;-93
2021/11/09 07:12:49;;;;;;;64.82;15.68;;;5.00;99.90;;;;;;5003800;28;20052;-91
2021/11/09 07:15:17;;;;;;;47.53;13.32;;;5.10;99.90;;;;;;4986877;28;20037;-93
2021/11/09 07:17:43;;;;;;;68.82;14.23;;;5.00;99.90;;;;;;5004043;28;20084;-89
2021/11/09 07:20:15;;;;;;;45.10;13.80;;;5.10;99.90;;;;;;5003352;28;20115;-91
2021/11/09 07:22:42;;;;;;;63.95;13.68;;;5.10;99.90;;;;;;5003629;28;20354;-91
2021/11/09 07:25:08;;;;;;;62.78;16.15;;;5.20;99.90;;;;;;5019197;28;20132;-90
2021/11/09 07:27:34;;;;;;;63.00;16.13;;;5.10;99.90;;;;;;5019607;28;20152;-91
2021/11/09 07:30:03;;;;;;;64.28;14.98;;;5.10;99.90;;;;;;4986260;28;20041;-92
2021/11/09 07:32:29;;;;;;;65.55;16.38;;;5.20;99.90;;;;;;5000043;28;20397;-91
2021/11/09 07:34:55;;;;;;;60.83;15.00;;;5.30;99.90;;;;;;5000017;28;20049;-90
2021/11/09 07:37:22;;;;;;;61.95;17.05;;;5.30;99.90;;;;;;5016672;28;20428;-91
2021/11/09 07:39:48;;;;;;;66.50;16.23;;;5.30;99.90;;;;;;4984442;28;20045;-92
2021/11/09 07:42:15;;;;;;;52.28;15.43;;;5.40;99.90;;;;;;5000076;28;20052;-93
2021/11/09 07:44:41;;;;;;;65.00;15.82;;;5.50;99.90;;;;;;5000688;28;20457;-93
2021/11/09 07:47:07;;;;;;;54.70;14.60;;;5.60;99.90;;;;;;4999791;28;20091;-93
2021/11/09 07:49:32;;;;;;;44.15;15.55;;;5.60;99.90;;;;;;4984166;28;20059;-93
2021/11/09 07:51:59;;;;;;;47.85;13.98;;;5.70;99.90;;;;;;4983530;28;20037;-92
2021/11/09 07:54:28;;;;;;;51.25;14.40;;;5.80;99.90;;;;;;5000236;28;20061;-93
2021/11/09 07:57:02;;;;;;;50.40;14.55;;;5.80;99.90;;;;;;4984434;28;20075;-91
2021/11/09 07:59:33;;;;;;;47.35;14.82;;;6.00;99.90;;;;;;5000070;28;20056;-89
2021/11/09 08:02:02;;;;;;;48.30;14.05;;;6.00;99.90;;;;;;5013266;28;20037;-91
2021/11/09 08:04:42;;;;;;;48.00;14.90;;;6.10;99.90;;;;;;5013612;28;20041;-90
2021/11/09 08:07:18;;;;;;;47.38;14.02;;;6.10;99.90;;;;;;4996558;28;20041;-92
2021/11/09 08:09:44;;;;;;;51.15;14.27;;;6.10;99.90;;;;;;5013594;28;20133;-92
2021/11/09 08:12:10;;;;;;;50.55;14.52;;;6.10;99.90;;;;;;4996140;28;20139;-92
2021/11/09 08:14:37;;;;;;;53.45;13.90;;;6.20;99.90;;;;;;4997166;28;20045;-91
2021/11/09 08:17:04;;;;;;;43.25;13.77;;;6.30;99.90;;;;;;4997732;28;20049;-93
2021/11/09 08:19:30;;;;;;;54.78;14.55;;;6.40;99.90;;;;;;4999997;28;20661;-93
2021/11/09 08:21:57;;;;;;;42.40;15.40;;;6.50;99.90;;;;;;4999881;28;20073;-92
2021/11/09 08:24:24;;;;;;;51.13;13.57;;;6.50;99.90;;;;;;4983825;28;20056;-92
2021/11/09 08:26:51;;;;;;;49.45;14.25;;;6.60;99.90;;;;;;5000577;28;20132;-93
2021/11/09 08:29:21;;;;;;;61.03;14.75;;;6.80;99.90;;;;;;4999966;28;20049;-93
2021/11/09 08:31:47;;;;;;;50.53;14.75;;;6.90;99.90;;;;;;4996311;28;20053;-94
2021/11/09 08:34:15;;;;;;;47.13;13.05;;;7.00;99.90;;;;;;4995808;28;20056;-92
2021/11/09 08:36:44;;;;;;;44.83;13.18;;;7.10;99.90;;;;;;4995435;28;20478;-90
2021/11/09 08:39:12;;;;;;;52.15;13.07;;;7.10;99.90;;;;;;4963633;28;20099;-91
2021/11/09 08:41:42;;;;;;;50.67;13.43;;;7.30;99.90;;;;;;4995647;28;20390;-91
2021/11/09 08:44:16;;;;;;;36.23;11.97;;;7.30;99.90;;;;;;4963924;28;20038;-92
2021/11/09 08:46:49;;;;;;;41.22;12.75;;;7.40;99.90;;;;;;4980313;28;20281;-93
2021/11/09 08:49:16;;;;;;;44.85;12.32;;;7.60;99.90;;;;;;4964254;28;20129;-92
2021/11/09 08:51:43;;;;;;;41.33;12.05;;;7.60;99.90;;;;;;4963492;28;20045;-93
2021/11/09 08:54:19;;;;;;;41.67;13.13;;;7.60;99.90;;;;;;4995714;28;20048;-93
2021/11/09 09:04:55;;;;;;;37.33;12.30;;;7.90;99.90;;;;;;4982709;28;20054;-91
2021/11/09 09:07:23;;;;;;;52.70;14.20;;;7.90;99.90;;;;;;4978935;28;20050;-92
2021/11/09 09:09:49;;;;;;;34.88;10.40;;;8.00;99.90;;;;;;4980050;28;20042;-92
2021/11/09 09:12:15;;;;;;;47.00;11.20;;;8.00;99.90;;;;;;4993841;28;20037;-93
2021/11/09 09:14:40;;;;;;;43.53;11.20;;;8.00;99.90;;;;;;4994320;28;20038;-92
2021/11/09 09:17:06;;;;;;;38.17;11.20;;;8.00;99.90;;;;;;4961886;28;20088;-90
2021/11/09 09:19:41;;;;;;;44.35;10.52;;;8.00;99.90;;;;;;4963052;28;20050;-92
2021/11/09 09:22:11;;;;;;;44.35;10.55;;;8.00;99.90;;;;;;4963612;28;20050;-92
2021/11/09 09:25:01;;;;;;;44.75;11.57;;;8.10;99.90;;;;;;4963577;28;20045;-93
2021/11/09 09:30:26;;;;;;;39.13;10.68;;;8.20;99.90;;;;;;4980650;28;20482;-92
2021/11/09 09:57:16;;;;;;;39.78;8.70;;;8.50;99.90;;;;;;5014785;28;20041;-92
2021/11/09 09:59:43;;;;;;;38.40;9.88;;;8.50;99.90;;;;;;4997747;28;20045;-91
2021/11/09 10:02:19;;;;;;;33.33;10.07;;;8.60;99.90;;;;;;4997274;28;20123;-92
2021/11/09 10:05:01;;;;;;;28.38;8.05;;;8.60;99.90;;;;;;4997823;28;20033;-92
2021/11/09 10:07:38;;;;;;;40.83;10.93;;;8.60;99.90;;;;;;5013809;28;20191;-93
2021/11/09 10:10:10;;;;;;;40.40;9.73;;;8.70;99.90;;;;;;4997351;28;20045;-89
2021/11/09 10:12:38;;;;;;;39.45;8.98;;;8.70;99.90;;;;;;4997534;28;20052;-92
2021/11/09 10:15:16;;;;;;;29.02;8.10;;;8.80;99.90;;;;;;4997343;28;20068;-92
2021/11/09 10:17:52;;;;;;;35.08;7.93;;;8.90;99.90;;;;;;5013985;28;20381;-93
2021/11/09 10:20:24;;;;;;;33.45;7.80;;;8.90;99.90;;;;;;4997616;28;20057;-93
2021/11/09 10:22:56;;;;;;;29.98;8.32;;;9.00;99.90;;;;;;5014452;28;20138;-93
2021/11/09 10:25:23;;;;;;;31.83;8.52;;;9.00;99.90;;;;;;5014258;28;20041;-93
2021/11/09 10:27:52;;;;;;;36.40;8.27;;;9.00;99.90;;;;;;4997974;28;20390;-94
2021/11/09 10:30:29;;;;;;;27.23;7.67;;;9.10;99.90;;;;;;4997887;28;20063;-92
2021/11/09 10:32:55;;;;;;;32.55;8.15;;;9.20;99.90;;;;;;4980778;28;20117;-94
2021/11/09 10:35:22;;;;;;;27.80;7.30;;;9.20;99.90;;;;;;4961669;28;20040;-95
2021/11/09 10:37:55;;;;;;;39.13;9.75;;;9.30;99.90;;;;;;4994456;28;20050;-91
2021/11/09 10:40:27;;;;;;;25.40;7.93;;;9.30;99.90;;;;;;4977807;28;20120;-90
2021/11/09 10:42:56;;;;;;;34.45;8.98;;;9.40;99.90;;;;;;4978052;28;20046;-90
2021/11/09 10:45:24;;;;;;;31.83;7.78;;;9.50;99.90;;;;;;4993677;28;20132;-92
2021/11/09 10:47:59;;;;;;;28.83;8.50;;;9.50;99.90;;;;;;4977702;28;20097;-93
2021/11/09 10:50:34;;;;;;;30.58;7.97;;;9.60;99.90;;;;;;4961458;28;20041;-93
2021/11/09 10:53:36;;;;;;;36.15;8.18;;;9.60;99.90;;;;;;4978118;28;20675;-93
2021/11/09 11:04:34;;;;;;;39.35;8.93;;;10.10;99.90;;;;;;4993347;28;20045;-93
2021/11/09 11:07:06;;;;;;;39.13;8.75;;;10.20;99.90;;;;;;4980150;28;20046;-92
2021/11/09 11:09:32;;;;;;;28.52;9.30;;;10.20;99.90;;;;;;4980746;28;20703;-91
2021/11/09 11:12:03;;;;;;;34.22;8.63;;;10.30;99.90;;;;;;4997538;28;20046;-92
2021/11/09 11:14:31;;;;;;;28.67;7.43;;;10.40;99.90;;;;;;4980742;28;20042;-93
2021/11/09 11:17:11;;;;;;;42.88;9.85;;;10.50;99.90;;;;;;4981393;28;20072;-92
2021/11/09 11:19:44;;;;;;;;;;;10.50;99.90;;;;;;4981632;28;20132;-95
2021/11/09 11:22:21;;;;;;;31.58;8.65;;;10.60;99.90;;;;;;4981155;28;20350;-92
2021/11/09 11:24:55;;;;;;;40.13;9.20;;;10.70;99.90;;;;;;4981213;28;20092;-90
2021/11/09 11:27:22;;;;;;;35.08;9.45;;;10.80;99.90;;;;;;4996649;28;20030;-90
2021/11/09 11:29:50;;;;;;;36.55;9.18;;;10.80;99.90;;;;;;4964859;28;20073;-89
2021/11/09 11:32:22;;;;;;;30.13;8.68;;;10.80;99.90;;;;;;4980051;28;20054;-89
2021/11/09 11:34:50;;;;;;;34.50;9.50;;;10.90;99.90;;;;;;4980623;28;20133;-90
2021/11/09 11:37:18;;;;;;;38.20;8.93;;;11.00;99.90;;;;;;4980290;28;20137;-88
2021/11/09 11:39:45;;;;;;;37.83;9.63;;;11.00;99.90;;;;;;4980330;28;20099;-89
2021/11/09 11:42:15;;;;;;;31.95;10.02;;;11.10;99.90;;;;;;4963160;28;20049;-91
2021/11/09 11:44:43;;;;;;;44.95;10.23;;;11.10;99.90;;;;;;4977912;28;20049;-92
2021/11/09 11:47:21;;;;;;;37.28;10.02;;;11.20;99.90;;;;;;4963700;28;20060;-90
2021/11/09 11:49:54;;;;;;;35.35;9.43;;;11.20;99.90;;;;;;4996767;28;20588;-91
2021/11/09 11:52:28;;;;;;;39.25;9.02;;;11.20;99.90;;;;;;4979553;28;20042;-88
2021/11/09 11:55:05;;;;;;;25.73;8.27;;;11.20;99.90;;;;;;4995824;28;20046;-90
2021/11/09 11:57:35;;;;;;;34.55;8.88;;;11.30;99.90;;;;;;4979594;28;20417;-89
2021/11/09 12:00:22;;;;;;;37.22;9.98;;;11.30;99.90;;;;;;4977997;28;20080;-90
2021/11/09 12:02:48;;;;;;;32.22;9.35;;;11.30;99.90;;;;;;4996749;28;20046;-91
2021/11/09 12:05:42;;;;;;;39.28;8.98;;;11.40;99.90;;;;;;4996658;28;20152;-88
2021/11/09 12:08:14;;;;;;;34.42;9.23;;;11.40;99.90;;;;;;4996104;28;20038;-89
2021/11/09 12:10:50;;;;;;;34.63;9.30;;;11.40;99.90;;;;;;5013219;28;20104;-90
2021/11/09 12:13:19;;;;;;;30.80;7.85;;;11.40;99.90;;;;;;4979774;28;20152;-88
2021/11/09 12:15:53;;;;;;;48.05;8.63;;;11.40;99.90;;;;;;4979021;28;20107;-92
2021/11/09 12:18:28;;;;;;;31.80;8.75;;;11.40;99.90;;;;;;4994736;28;20046;-90
2021/11/09 12:21:19;;;;;;;33.00;8.63;;;11.40;99.90;;;;;;4979589;28;20044;-91
2021/11/09 12:24:14;;;;;;;21.10;6.82;;;11.50;99.90;;;;;;4969162;28;20145;-90
2021/11/09 12:26:46;;;;;;;28.90;7.45;;;11.50;99.90;;;;;;4995432;28;20048;-88
2021/11/09 12:29:40;;;;;;;29.38;6.68;;;11.50;99.90;;;;;;4979620;28;20038;-90
2021/11/09 12:32:21;;;;;;;35.45;8.60;;;11.60;99.90;;;;;;4995059;28;20486;-91
2021/11/09 12:35:14;;;;;;;29.33;8.18;;;11.60;99.90;;;;;;4995271;28;20482;-91
2021/11/09 12:37:42;;;;;;;28.20;7.50;;;11.60;99.90;;;;;;4995158;28;20038;-90
2021/11/09 12:40:35;;;;;;;23.00;6.85;;;11.60;99.90;;;;;;4995706;28;20104;-90
2021/11/09 12:43:25;;;;;;;27.40;6.90;;;11.70;99.90;;;;;;4995242;28;20719;-90
2021/11/09 12:46:09;;;;;;;33.30;9.13;;;11.70;99.90;;;;;;4995428;28;20046;-91
2021/11/09 12:48:49;;;;;;;29.88;7.18;;;11.70;99.90;;;;;;4995109;28;20046;-91
2021/11/09 12:51:16;;;;;;;28.50;6.43;;;11.70;99.90;;;;;;4995324;28;20049;-92
2021/11/09 12:53:46;;;;;;;22.98;6.03;;;11.70;99.90;;;;;;4995030;28;20077;-91
2021/11/09 12:56:15;;;;;;;22.35;5.72;;;11.60;99.90;;;;;;4994878;28;20037;-90
2021/11/09 12:58:59;;;;;;;20.08;6.20;;;11.60;99.90;;;;;;4994870;28;20129;-89
2021/11/09 13:05:14;;;;;;;26.63;7.22;;;11.60;99.90;;;;;;4995060;28;20141;-91
2021/11/09 13:09:56;;;;;;;27.35;6.13;;;11.50;99.90;;;;;;4994737;28;20088;-91
2021/11/09 13:12:32;;;;;;;24.77;6.43;;;11.50;99.90;;;;;;4994877;28;20049;-89
2021/11/09 13:15:11;;;;;;;25.45;6.78;;;11.50;99.90;;;;;;4978629;28;20116;-91
2021/11/09 13:17:54;;;;;;;19.15;5.65;;;11.50;99.90;;;;;;4994303;28;20367;-90
2021/11/09 13:21:12;;;;;;;23.92;6.20;;;11.50;99.90;;;;;;4994760;28;20096;-90
2021/11/09 13:23:15;;;;;;;20.27;5.75;;;11.40;99.90;;;;;;4984224;28;20038;-92
2021/11/09 13:25:49;;;;;;;25.58;6.25;;;11.40;99.90;;;;;;4993997;28;20474;-91
2021/11/09 13:28:15;;;;;;;24.92;5.93;;;11.30;99.90;;;;;;4978143;28;20107;-89
2021/11/09 13:30:43;;;;;;;24.73;6.05;;;11.30;99.90;;;;;;4994035;28;20052;-90
2021/11/09 13:33:10;;;;;;;23.48;5.97;;;11.30;99.90;;;;;;4994402;28;20049;-90
2021/11/09 13:35:38;;;;;;;22.63;5.38;;;11.30;99.90;;;;;;5011626;28;20104;-89
2021/11/09 13:38:13;;;;;;;24.67;5.80;;;11.30;99.90;;;;;;5012023;28;20042;-90
2021/11/09 13:40:45;;;;;;;18.77;6.50;;;11.20;99.90;;;;;;4994296;28;20089;-90
2021/11/09 13:43:14;;;;;;;21.83;5.53;;;11.30;99.90;;;;;;4994715;28;20132;-89
2021/11/09 13:45:40;;;;;;;21.98;5.38;;;11.30;99.90;;;;;;4978036;28;20049;-89
2021/11/09 13:48:17;;;;;;;20.63;5.10;;;11.30;99.90;;;;;;4978342;28;20112;-90
2021/11/09 13:50:46;;;;;;;18.90;5.22;;;11.20;99.90;;;;;;5011412;28;20089;-91
2021/11/09 13:53:12;;;;;;;27.23;6.05;;;11.20;99.90;;;;;;4994945;28;20049;-89
2021/11/09 13:55:40;;;;;;;20.90;6.13;;;11.20;99.90;;;;;;4997804;28;20049;-89
2021/11/09 13:58:08;;;;;;;15.90;5.50;;;11.20;99.90;;;;;;4981770;28;20041;-90
2021/11/09 14:00:42;;;;;;;21.52;5.35;;;11.20;99.90;;;;;;4994825;28;20132;-90
2021/11/09 14:16:37;;;;;;;26.77;6.72;;;11.20;99.90;;;;;;4992155;28;20046;-91
2021/11/09 14:19:12;;;;;;;25.80;7.13;;;11.20;99.90;;;;;;4976263;28;20116;-90
2021/11/09 14:21:38;;;;;;;24.70;6.88;;;11.20;99.90;;;;;;4976530;28;20525;-89
2021/11/09 14:24:16;;;;;;;29.05;8.07;;;11.20;99.90;;;;;;4992090;28;20136;-88
2021/11/09 14:26:43;;;;;;;25.48;6.97;;;11.20;99.90;;;;;;4975100;28;20048;-90
2021/11/09 14:29:38;;;;;;;19.67;6.63;;;11.20;99.90;;;;;;4976104;28;20057;-89
2021/11/09 14:32:18;;;;;;;32.88;7.85;;;11.20;99.90;;;;;;4989190;28;20050;-89
2021/11/09 14:35:07;;;;;;;32.88;9.00;;;11.20;99.90;;;;;;4975348;28;20088;-89
2021/11/09 14:37:57;;;;;;;22.45;8.30;;;11.20;99.90;;;;;;4975244;28;20117;-89
2021/11/09 14:40:34;;;;;;;38.75;8.40;;;11.10;99.90;;;;;;4993943;28;20076;-90
2021/11/09 14:43:38;;;;;;;28.73;8.38;;;11.20;99.90;;;;;;4997398;28;20050;-89
2021/11/09 14:46:10;;;;;;;29.15;7.68;;;11.20;99.90;;;;;;4997924;28;20077;-90
2021/11/09 14:48:49;;;;;;;27.65;7.90;;;11.20;99.90;;;;;;4997425;28;20487;-89
2021/11/09 14:51:19;;;;;;;37.80;10.00;;;11.10;99.90;;;;;;4981534;28;20056;-91
2021/11/09 14:56:24;;;;;;;31.95;8.32;;;11.10;99.90;;;;;;4997106;28;20042;-91
2021/11/09 14:58:49;;;;;;;32.65;8.18;;;11.10;99.90;;;;;;4997141;28;20325;-90
2021/11/09 15:01:33;;;;;;;32.65;7.63;;;11.10;99.90;;;;;;4980892;28;20081;-90
2021/11/09 15:04:16;;;;;;;21.63;7.65;;;11.10;99.90;;;;;;4981210;28;20137;-91
2021/11/09 15:06:54;;;;;;;36.10;7.97;;;11.10;99.90;;;;;;4980399;28;20425;-91
2021/11/09 15:12:12;;;;;;;30.77;7.57;;;11.00;99.90;;;;;;4996835;28;20053;-90
2021/11/09 15:28:16;;;;;;;26.15;6.53;;;10.90;99.90;;;;;;4996574;28;20046;-90
2021/11/09 15:38:31;;;;;;;36.30;7.45;;;10.80;99.90;;;;;;4996425;28;20468;-90
2021/11/09 15:40:57;;;;;;;30.13;8.38;;;10.80;99.90;;;;;;4996371;28;20049;-91
2021/11/09 15:43:23;;;;;;;32.47;7.88;;;10.70;99.90;;;;;;4996851;28;20478;-91
2021/11/09 15:45:50;;;;;;;30.92;8.27;;;10.70;99.90;;;;;;4996198;28;20127;-90
2021/11/09 15:48:16;;;;;;;30.92;7.55;;;10.70;99.90;;;;;;4996524;28;20385;-89
2021/11/09 15:50:42;;;;;;;34.50;8.00;;;10.70;99.90;;;;;;4980239;28;20080;-90
2021/11/09 15:53:08;;;;;;;37.60;8.82;;;10.60;99.90;;;;;;4995780;28;20042;-90
2021/11/09 15:55:34;;;;;;;30.83;7.30;;;10.60;99.90;;;;;;4996255;28;20064;-90
2021/11/09 15:58:00;;;;;;;30.25;9.40;;;10.60;99.90;;;;;;4963728;28;20056;-91
2021/11/09 16:00:26;;;;;;;29.42;7.63;;;10.50;99.90;;;;;;4996145;28;20054;-90
2021/11/09 16:02:52;;;;;;;29.05;8.23;;;10.50;99.90;;;;;;4964100;28;20377;-91